createdAt,value
2023-02-06T00:01:50.130Z,246.90
2023-02-06T00:04:18.276Z,230.80
2023-02-06T00:06:46.590Z,239.80
2023-02-06T00:09:14.886Z,263.50
2023-02-06T00:11:42.928Z,288.30
2023-02-06T00:14:10.981Z,252.50
2023-02-06T00:16:39.073Z,250.80
2023-02-06T00:19:07.387Z,255.70
2023-02-06T00:21:35.252Z,264.90
2023-02-06T00:24:04.791Z,264.10
2023-02-06T00:26:33.082Z,255.20
2023-02-06T00:29:01.183Z,236.00
2023-02-06T00:31:29.202Z,228.10
2023-02-06T00:33:57.355Z,228.70
2023-02-06T00:36:26.992Z,236.40
2023-02-06T00:38:55.076Z,252.80
2023-02-06T00:41:23.152Z,258.50
2023-02-06T00:43:52.393Z,259.00
2023-02-06T00:46:20.984Z,307.40
2023-02-06T00:48:49.071Z,269.30
2023-02-06T00:51:17.011Z,309.90
2023-02-06T00:53:44.990Z,255.50
2023-02-06T00:56:14.789Z,229.30
2023-02-06T00:58:42.731Z,220.80
2023-02-06T01:01:13.186Z,209.60
2023-02-06T01:03:41.274Z,197.90
2023-02-06T01:06:10.780Z,181.40
2023-02-06T01:08:39.067Z,174.40
2023-02-06T01:11:15.077Z,184.00
2023-02-06T01:13:43.574Z,281.00
2023-02-06T01:16:16.224Z,254.00
2023-02-06T01:18:44.459Z,222.70
2023-02-06T01:21:16.531Z,226.30
2023-02-06T01:23:44.892Z,222.60
2023-02-06T01:26:14.584Z,223.20
2023-02-06T01:28:45.855Z,205.60
2023-02-06T01:31:24.932Z,199.90
2023-02-06T01:33:54.697Z,200.60
2023-02-06T01:36:23.620Z,188.60
2023-02-06T01:38:52.578Z,189.20
2023-02-06T01:41:23.446Z,205.10
2023-02-06T01:44:13.526Z,205.90
2023-02-06T01:46:44.355Z,226.60
2023-02-06T01:49:28.172Z,220.10
2023-02-06T01:52:20.789Z,224.80
2023-02-06T01:54:58.161Z,222.20
2023-02-06T01:57:27.213Z,214.50
2023-02-06T02:00:00.700Z,194.40
2023-02-06T02:02:29.559Z,200.80
2023-02-06T02:04:58.706Z,196.10
2023-02-06T02:07:32.193Z,215.10
2023-02-06T02:12:30.513Z,169.50
2023-02-06T02:14:59.399Z,164.70
2023-02-06T02:17:42.676Z,198.80
2023-02-06T02:20:38.659Z,194.70
2023-02-06T02:23:20.597Z,171.10
2023-02-06T02:26:35.457Z,173.80
2023-02-06T02:29:51.405Z,176.40
2023-02-06T02:32:44.019Z,177.40
2023-02-06T02:35:20.909Z,154.90
2023-02-06T02:38:20.462Z,147.30
2023-02-06T02:41:02.561Z,140.80
2023-02-06T02:43:42.498Z,133.30
2023-02-06T02:46:26.444Z,132.80
2023-02-06T02:49:00.261Z,131.30
2023-02-06T02:51:28.440Z,136.90
2023-02-06T02:53:58.162Z,143.70
2023-02-06T02:56:27.395Z,140.70
2023-02-06T02:59:07.988Z,142.30
2023-02-06T03:01:42.511Z,166.30
2023-02-06T03:04:18.585Z,155.90
2023-02-06T03:07:04.634Z,144.50
2023-02-06T03:10:03.963Z,142.70
2023-02-06T03:12:45.987Z,136.20
2023-02-06T03:15:35.518Z,127.30
2023-02-06T03:18:32.792Z,126.40
2023-02-06T03:21:05.601Z,121.30
2023-02-06T03:23:38.596Z,142.40
2023-02-06T03:26:10.008Z,124.60
2023-02-06T03:28:42.113Z,122.90
2023-02-06T03:31:13.871Z,121.80
2023-02-06T03:33:53.099Z,118.80
2023-02-06T03:36:21.523Z,112.90
2023-02-06T03:38:51.084Z,108.80
2023-02-06T03:41:23.845Z,107.60
2023-02-06T03:43:53.649Z,104.80
2023-02-06T03:46:23.624Z,105.80
2023-02-06T03:48:57.278Z,100.50
2023-02-06T03:51:39.524Z,97.30
2023-02-06T03:54:09.418Z,98.10
2023-02-06T03:56:45.921Z,104.60
2023-02-06T03:59:14.288Z,111.40
2023-02-06T04:01:46.830Z,128.20
2023-02-06T04:04:20.244Z,126.90
2023-02-06T04:06:48.327Z,97.80
2023-02-06T04:09:16.251Z,90.60
2023-02-06T04:11:44.217Z,89.20
2023-02-06T04:14:12.140Z,81.80
2023-02-06T04:16:40.073Z,80.80
2023-02-06T04:19:08.108Z,83.30
2023-02-06T04:21:36.013Z,79.40
2023-02-06T04:24:04.178Z,76.40
2023-02-06T04:26:31.952Z,78.60
2023-02-06T04:28:59.913Z,77.40
2023-02-06T04:31:27.948Z,75.90
2023-02-06T04:33:55.889Z,73.80
2023-02-06T04:36:23.913Z,71.80
2023-02-06T04:38:51.897Z,72.30
2023-02-06T04:41:19.765Z,71.10
2023-02-06T04:43:47.547Z,67.60
2023-02-06T04:46:15.425Z,64.90
2023-02-06T04:48:43.481Z,63.20
2023-02-06T04:51:11.345Z,64.50
2023-02-06T04:53:39.238Z,63.30
2023-02-06T04:56:11.214Z,62.20
2023-02-06T04:58:40.636Z,72.20
2023-02-06T05:01:08.471Z,73.50
2023-02-06T05:03:36.547Z,73.90
2023-02-06T05:06:04.919Z,72.80
2023-02-06T05:08:32.968Z,64.60
2023-02-06T05:11:00.810Z,63.50
2023-02-06T05:13:28.693Z,67.60
2023-02-06T05:16:01.400Z,75.40
2023-02-06T05:18:29.359Z,74.10
2023-02-06T05:20:57.469Z,79.30
2023-02-06T05:23:25.349Z,78.00
2023-02-06T05:25:53.236Z,74.30
2023-02-06T05:28:21.351Z,72.20
2023-02-06T05:30:49.485Z,69.60
2023-02-06T05:33:19.096Z,65.20
2023-02-06T05:35:47.075Z,66.90
2023-02-06T05:38:15.183Z,65.00
2023-02-06T05:40:43.068Z,66.60
2023-02-06T05:43:11.847Z,68.80
2023-02-06T05:45:39.898Z,87.80
2023-02-06T05:48:08.122Z,126.00
2023-02-06T05:50:35.946Z,273.50
2023-02-06T05:53:05.242Z,85.00
2023-02-06T05:55:33.497Z,65.10
2023-02-06T05:58:01.659Z,62.40
2023-02-06T06:00:29.484Z,61.50
2023-02-06T06:02:57.428Z,63.20
2023-02-06T06:05:25.978Z,67.30
2023-02-06T06:07:53.858Z,69.60
2023-02-06T06:10:21.760Z,82.30
2023-02-06T06:12:49.650Z,75.70
2023-02-06T06:15:17.702Z,72.40
2023-02-06T06:17:45.596Z,71.40
2023-02-06T06:20:13.530Z,71.50
2023-02-06T06:22:41.560Z,71.00
2023-02-06T06:25:09.651Z,70.50
2023-02-06T06:27:37.549Z,72.10
2023-02-06T06:30:06.088Z,71.70
2023-02-06T06:32:34.140Z,68.70
2023-02-06T06:35:02.216Z,70.40
2023-02-06T06:37:30.490Z,71.50
2023-02-06T06:39:58.452Z,69.70
2023-02-06T06:42:26.425Z,67.70
2023-02-06T06:44:54.442Z,65.50
2023-02-06T06:47:22.365Z,65.80
2023-02-06T06:49:50.246Z,67.60
2023-02-06T06:52:25.010Z,64.70
2023-02-06T06:54:54.185Z,65.80
2023-02-06T06:57:22.541Z,68.40
2023-02-06T06:59:50.891Z,64.70
2023-02-06T07:02:18.756Z,68.60
2023-02-06T07:04:46.852Z,69.50
2023-02-06T07:07:14.890Z,66.00
2023-02-06T07:09:42.858Z,63.40
2023-02-06T07:12:10.856Z,60.00
2023-02-06T07:14:40.205Z,59.40
2023-02-06T07:17:08.265Z,56.90
2023-02-06T07:19:36.086Z,59.50
2023-02-06T07:22:04.066Z,68.80
2023-02-06T07:24:31.854Z,67.20
2023-02-06T07:26:59.826Z,64.00
2023-02-06T07:29:27.720Z,64.50
2023-02-06T07:31:55.791Z,67.90
2023-02-06T07:34:23.864Z,74.00
2023-02-06T07:36:51.806Z,131.60
2023-02-06T07:39:19.761Z,77.20
2023-02-06T07:41:49.992Z,81.70
2023-02-06T07:44:20.449Z,77.50
2023-02-06T07:46:48.217Z,75.00
2023-02-06T07:49:16.148Z,73.10
2023-02-06T07:51:45.516Z,73.80
2023-02-06T07:54:13.725Z,108.40
2023-02-06T07:56:42.343Z,95.40
2023-02-06T07:59:10.556Z,114.30
2023-02-06T08:01:38.442Z,86.90
2023-02-06T08:04:06.415Z,111.40
2023-02-06T08:06:34.524Z,160.20
2023-02-06T08:09:02.418Z,154.70
2023-02-06T08:11:31.163Z,175.30
2023-02-06T08:13:59.204Z,138.40
2023-02-06T08:16:27.198Z,87.80
2023-02-06T08:18:55.009Z,68.60
2023-02-06T08:21:25.541Z,62.70
2023-02-06T08:23:55.371Z,57.90
2023-02-06T08:26:24.163Z,63.20
2023-02-06T08:28:53.860Z,75.50
2023-02-06T08:31:27.005Z,50.90
2023-02-06T08:33:55.659Z,45.40
2023-02-06T08:36:25.227Z,42.20
2023-02-06T08:38:53.476Z,43.90
2023-02-06T08:41:24.786Z,46.90
2023-02-06T08:43:55.762Z,56.20
2023-02-06T08:46:26.939Z,70.00
2023-02-06T08:48:56.728Z,61.80
2023-02-06T08:51:28.004Z,50.80
2023-02-06T08:54:00.968Z,46.60
2023-02-06T08:56:30.562Z,67.40
2023-02-06T08:58:59.895Z,53.10
2023-02-06T09:01:29.751Z,56.50
2023-02-06T09:04:03.507Z,45.50
2023-02-06T09:06:31.512Z,44.70
2023-02-06T09:08:59.526Z,48.00
2023-02-06T09:11:28.806Z,55.20
2023-02-06T09:13:58.651Z,49.70
2023-02-06T09:16:28.334Z,47.00
2023-02-06T09:19:01.453Z,52.90
2023-02-06T09:21:31.964Z,43.60
2023-02-06T09:24:03.380Z,41.10
2023-02-06T09:26:38.886Z,40.90
2023-02-06T09:29:11.658Z,38.30
2023-02-06T09:31:42.013Z,37.90
2023-02-06T09:34:12.563Z,53.70
2023-02-06T09:36:41.207Z,45.90
2023-02-06T09:39:09.598Z,47.10
2023-02-06T09:41:50.515Z,55.10
2023-02-06T09:44:21.539Z,41.90
2023-02-06T09:46:55.757Z,38.20
2023-02-06T09:49:41.795Z,35.90
2023-02-06T09:52:37.076Z,36.40
2023-02-06T09:55:18.521Z,35.20
2023-02-06T09:58:08.066Z,34.40
2023-02-06T10:00:51.740Z,36.10
2023-02-06T10:03:50.318Z,33.30
2023-02-06T10:06:27.193Z,60.10
2023-02-06T10:09:03.688Z,39.30
2023-02-06T10:11:55.001Z,30.40
2023-02-06T10:14:43.895Z,28.50
2023-02-06T10:17:26.010Z,26.10
2023-02-06T10:20:15.662Z,274.40
2023-02-06T10:22:54.601Z,62.80
2023-02-06T10:25:29.076Z,36.60
2023-02-06T10:28:01.462Z,31.00
2023-02-06T10:30:50.923Z,31.50
2023-02-06T10:33:32.722Z,61.30
2023-02-06T10:36:19.436Z,22.50
2023-02-06T10:38:50.281Z,24.90
2023-02-06T10:41:26.006Z,49.50
2023-02-06T10:44:03.005Z,45.50
2023-02-06T10:46:40.407Z,27.00
2023-02-06T10:49:18.686Z,29.30
2023-02-06T10:51:52.847Z,42.70
2023-02-06T10:54:31.428Z,54.20
2023-02-06T10:57:00.729Z,58.40
2023-02-06T10:59:28.750Z,35.10
2023-02-06T11:02:18.291Z,25.30
2023-02-06T11:05:25.837Z,23.00
2023-02-06T11:07:57.084Z,18.80
2023-02-06T11:10:26.921Z,26.70
2023-02-06T11:13:06.368Z,17.80
2023-02-06T11:15:43.060Z,18.90
2023-02-06T11:18:17.565Z,16.00
2023-02-06T11:20:48.490Z,27.40
2023-02-06T11:23:22.989Z,23.20
2023-02-06T11:26:10.569Z,18.60
2023-02-06T11:28:49.375Z,23.70
2023-02-06T11:31:20.571Z,26.60
2023-02-06T11:33:52.557Z,21.80
2023-02-06T11:36:27.354Z,86.00
2023-02-06T11:38:57.551Z,55.90
2023-02-06T11:41:26.265Z,66.80
2023-02-06T11:44:02.766Z,33.30
2023-02-06T11:46:35.214Z,37.40
2023-02-06T11:49:25.564Z,43.70
2023-02-06T11:52:03.794Z,25.90
2023-02-06T11:54:35.540Z,28.70
2023-02-06T11:57:10.238Z,57.40
2023-02-06T11:59:53.876Z,32.60
2023-02-06T12:02:36.592Z,20.50
2023-02-06T12:05:16.398Z,43.20
2023-02-06T12:07:53.513Z,21.20
2023-02-06T12:10:24.085Z,18.20
2023-02-06T12:12:57.967Z,24.90
2023-02-06T12:15:46.966Z,60.20
2023-02-06T12:18:22.736Z,40.20
2023-02-06T12:20:59.384Z,26.00
2023-02-06T12:23:42.886Z,20.10
2023-02-06T12:26:16.121Z,21.60
2023-02-06T12:28:47.030Z,17.20
2023-02-06T12:31:22.884Z,17.30
2023-02-06T12:33:55.311Z,12.30
2023-02-06T12:36:30.773Z,31.70
2023-02-06T12:39:03.373Z,51.90
2023-02-06T12:41:46.440Z,147.10
2023-02-06T12:44:29.651Z,51.90
2023-02-06T12:47:06.914Z,31.60
2023-02-06T12:49:50.821Z,277.20
2023-02-06T12:52:31.467Z,70.40
2023-02-06T12:55:11.565Z,28.90
2023-02-06T12:57:40.192Z,15.90
2023-02-06T13:00:14.325Z,74.30
2023-02-06T13:03:21.080Z,45.80
2023-02-06T13:06:03.057Z,34.90
2023-02-06T13:08:56.055Z,38.20
2023-02-06T13:11:40.654Z,18.20
2023-02-06T13:14:17.719Z,22.00
2023-02-06T13:16:45.688Z,77.40
2023-02-06T13:19:31.797Z,33.20
2023-02-06T13:22:09.137Z,15.20
2023-02-06T13:24:39.304Z,18.10
2023-02-06T13:27:07.199Z,13.60
2023-02-06T13:29:37.645Z,11.20
2023-02-06T13:32:22.758Z,11.40
2023-02-06T13:34:50.638Z,9.30
2023-02-06T13:37:33.269Z,10.80
2023-02-06T13:40:22.380Z,14.00
2023-02-06T13:43:14.000Z,10.20
2023-02-06T13:46:01.053Z,27.70
2023-02-06T13:48:59.882Z,13.50
2023-02-06T13:51:50.359Z,27.40
2023-02-06T13:54:34.221Z,11.30
2023-02-06T13:57:23.000Z,9.80
2023-02-06T14:00:01.709Z,8.10
2023-02-06T14:02:47.565Z,9.70
2023-02-06T14:05:26.201Z,9.00
2023-02-06T14:08:06.118Z,11.00
2023-02-06T14:11:32.609Z,9.10
2023-02-06T14:14:18.967Z,8.70
2023-02-06T14:16:59.692Z,9.00
2023-02-06T14:19:38.303Z,10.10
2023-02-06T14:22:27.679Z,10.30
2023-02-06T14:25:29.876Z,9.30
2023-02-06T14:28:16.501Z,10.60
2023-02-06T14:30:56.756Z,11.90
2023-02-06T14:33:40.744Z,13.90
2023-02-06T14:36:39.034Z,13.50
2023-02-06T14:39:29.822Z,11.60
2023-02-06T14:41:58.160Z,11.30
2023-02-06T14:44:31.401Z,11.40
2023-02-06T14:47:55.808Z,10.90
2023-02-06T14:51:00.922Z,11.80
2023-02-06T14:53:30.792Z,11.20
2023-02-06T14:56:15.787Z,11.90
2023-02-06T14:58:46.500Z,12.60
2023-02-06T15:01:34.572Z,13.30
2023-02-06T15:04:12.596Z,14.00
2023-02-06T15:07:04.067Z,13.00
2023-02-06T15:09:31.908Z,29.10
2023-02-06T15:12:02.572Z,21.40
2023-02-06T15:14:33.633Z,15.30
2023-02-06T15:17:02.836Z,14.00
2023-02-06T15:19:33.574Z,13.00
2023-02-06T15:22:15.549Z,11.70
2023-02-06T15:24:54.398Z,11.50
2023-02-06T15:27:37.171Z,10.60
2023-02-06T15:30:21.739Z,9.80
2023-02-06T15:32:56.208Z,10.80
2023-02-06T15:35:28.864Z,10.70
2023-02-06T15:38:03.078Z,12.00
2023-02-06T15:40:33.288Z,25.50
2023-02-06T15:43:03.016Z,30.30
2023-02-06T15:45:37.290Z,58.70
2023-02-06T15:48:23.780Z,54.30
2023-02-06T15:51:00.509Z,46.60
2023-02-06T15:53:42.356Z,34.60
2023-02-06T15:56:26.500Z,58.00
2023-02-06T15:58:58.266Z,30.40
2023-02-06T16:01:30.443Z,30.00
2023-02-06T16:04:03.962Z,27.90
2023-02-06T16:06:31.838Z,42.90
2023-02-06T16:09:03.219Z,39.20
2023-02-06T16:11:46.237Z,42.60
2023-02-06T16:14:29.080Z,42.80
2023-02-06T16:17:17.069Z,42.90
2023-02-06T16:19:56.422Z,35.40
2023-02-06T16:22:28.198Z,32.20
2023-02-06T16:25:15.462Z,35.60
2023-02-06T16:27:46.362Z,34.80
2023-02-06T16:30:20.435Z,31.80
2023-02-06T16:32:48.364Z,38.00
2023-02-06T16:35:16.256Z,41.50
2023-02-06T16:37:44.123Z,81.00
2023-02-06T16:40:11.919Z,76.80
2023-02-06T16:42:41.611Z,68.10
2023-02-06T16:45:16.672Z,114.60
2023-02-06T16:47:44.704Z,81.90
2023-02-06T16:50:13.030Z,111.30
2023-02-06T16:52:47.439Z,124.60
2023-02-06T16:55:20.406Z,68.10
2023-02-06T16:57:53.062Z,80.30
2023-02-06T17:00:26.777Z,117.70
2023-02-06T17:02:55.108Z,97.60
2023-02-06T17:05:25.543Z,98.60
2023-02-06T17:07:55.054Z,150.60
2023-02-06T17:10:26.096Z,131.30
2023-02-06T17:12:54.234Z,112.20
2023-02-06T17:15:22.278Z,108.00
2023-02-06T17:17:49.973Z,88.30
2023-02-06T17:20:26.707Z,78.00
2023-02-06T17:22:54.470Z,60.60
2023-02-06T17:25:22.227Z,98.50
2023-02-06T17:27:50.023Z,121.20
2023-02-06T17:30:20.618Z,93.70
2023-02-06T17:32:49.264Z,102.90
2023-02-06T17:35:18.025Z,93.30
2023-02-06T17:37:46.203Z,85.70
2023-02-06T17:40:22.667Z,94.90
2023-02-06T17:42:50.708Z,102.60
2023-02-06T17:45:18.539Z,115.30
2023-02-06T17:47:46.559Z,128.20
2023-02-06T17:50:17.205Z,120.70
2023-02-06T17:52:45.205Z,119.10
2023-02-06T17:55:13.617Z,128.00
2023-02-06T17:57:41.801Z,131.40
2023-02-06T18:00:14.511Z,124.60
2023-02-06T18:02:42.686Z,152.50
2023-02-06T18:05:10.920Z,152.00
2023-02-06T18:07:39.401Z,145.00
2023-02-06T18:10:09.230Z,131.80
2023-02-06T18:12:37.808Z,146.40
2023-02-06T18:15:05.938Z,112.60
2023-02-06T18:17:34.007Z,113.30
2023-02-06T18:20:02.078Z,114.60
2023-02-06T18:22:29.964Z,140.00
2023-02-06T18:24:59.462Z,135.00
2023-02-06T18:27:27.220Z,151.50
2023-02-06T18:29:55.427Z,137.90
2023-02-06T18:32:23.307Z,199.90
2023-02-06T18:34:51.285Z,153.90
2023-02-06T18:37:19.066Z,154.70
2023-02-06T18:39:47.031Z,236.30
2023-02-06T18:42:33.578Z,149.40
2023-02-06T18:45:03.995Z,132.40
2023-02-06T18:47:32.296Z,161.60
2023-02-06T18:50:00.340Z,125.10
2023-02-06T18:52:28.871Z,120.50
2023-02-06T18:54:56.732Z,122.20
2023-02-06T18:57:24.682Z,200.90
2023-02-06T18:59:52.742Z,192.80
2023-02-06T19:02:20.578Z,131.20
2023-02-06T19:04:48.502Z,134.50
2023-02-06T19:07:16.781Z,133.10
2023-02-06T19:09:44.615Z,132.20
2023-02-06T19:12:12.403Z,131.30
2023-02-06T19:14:40.236Z,144.00
2023-02-06T19:17:08.077Z,138.50
2023-02-06T19:19:35.909Z,119.50
2023-02-06T19:22:03.735Z,123.50
2023-02-06T19:24:31.754Z,153.50
2023-02-06T19:26:59.601Z,149.00
2023-02-06T19:29:35.628Z,148.90
2023-02-06T19:32:07.177Z,143.70
2023-02-06T19:34:37.386Z,139.80
2023-02-06T19:37:07.741Z,145.20
2023-02-06T19:39:38.094Z,152.00
2023-02-06T19:42:09.821Z,236.10
2023-02-06T19:44:38.049Z,242.50
2023-02-06T19:47:05.904Z,188.20
2023-02-06T19:49:33.762Z,244.00
2023-02-06T19:52:02.112Z,277.40
2023-02-06T19:54:30.201Z,200.80
2023-02-06T19:57:00.617Z,224.20
2023-02-06T19:59:29.927Z,222.70
2023-02-06T20:02:00.970Z,202.30
2023-02-06T20:04:32.491Z,197.40
2023-02-06T20:07:01.173Z,194.80
2023-02-06T20:09:29.868Z,184.90
2023-02-06T20:11:59.020Z,151.00
2023-02-06T20:14:27.026Z,163.80
2023-02-06T20:16:55.328Z,202.10
2023-02-06T20:19:26.267Z,205.40
2023-02-06T20:21:57.301Z,180.50
2023-02-06T20:24:28.967Z,138.50
2023-02-06T20:27:01.683Z,134.20
2023-02-06T20:29:33.215Z,123.00
2023-02-06T20:32:04.333Z,163.30
2023-02-06T20:34:32.734Z,119.10
2023-02-06T20:37:00.650Z,147.60
2023-02-06T20:39:29.672Z,164.30
2023-02-06T20:41:57.788Z,148.70
2023-02-06T20:44:26.445Z,150.50
2023-02-06T20:46:54.370Z,144.30
2023-02-06T20:49:24.864Z,141.80
2023-02-06T20:51:53.275Z,139.50
2023-02-06T20:54:21.874Z,153.60
2023-02-06T20:56:50.067Z,158.00
2023-02-06T20:59:19.790Z,169.60
2023-02-06T21:01:48.062Z,159.80
2023-02-06T21:04:16.918Z,154.80
2023-02-06T21:06:47.975Z,150.00
2023-02-06T21:09:16.950Z,143.10
2023-02-06T21:11:48.046Z,165.10
2023-02-06T21:14:16.895Z,162.30
2023-02-06T21:16:44.938Z,123.20
2023-02-06T21:19:15.017Z,149.30
2023-02-06T21:21:45.831Z,151.00
2023-02-06T21:24:14.833Z,130.60
2023-02-06T21:26:43.140Z,134.20
2023-02-06T21:29:13.956Z,135.90
2023-02-06T21:31:42.236Z,146.40
2023-02-06T21:34:21.906Z,142.40
2023-02-06T21:36:50.302Z,135.10
2023-02-06T21:39:21.121Z,136.40
2023-02-06T21:41:53.828Z,155.30
2023-02-06T21:44:24.127Z,176.80
2023-02-06T21:46:52.833Z,172.90
2023-02-06T21:49:21.192Z,160.40
2023-02-06T21:51:53.501Z,189.60
2023-02-06T21:54:22.507Z,145.20
2023-02-06T21:56:51.446Z,124.00
2023-02-06T21:59:19.207Z,126.70
2023-02-06T22:01:47.012Z,103.00
2023-02-06T22:04:14.848Z,122.70
2023-02-06T22:06:43.695Z,124.60
2023-02-06T22:09:16.357Z,122.90
2023-02-06T22:11:46.094Z,122.80
2023-02-06T22:14:17.056Z,142.60
2023-02-06T22:16:48.286Z,147.50
2023-02-06T22:19:16.712Z,140.90
2023-02-06T22:21:44.604Z,141.00
2023-02-06T22:24:12.654Z,136.70
2023-02-06T22:26:41.605Z,131.50
2023-02-06T22:29:17.428Z,129.70
2023-02-06T22:34:19.417Z,120.90
2023-02-06T22:36:50.644Z,119.80
2023-02-06T22:39:18.942Z,116.50
2023-02-06T22:41:47.242Z,113.20
2023-02-06T22:44:17.023Z,112.70
2023-02-06T22:46:48.785Z,109.20
2023-02-06T22:49:17.936Z,107.40
2023-02-06T22:51:46.225Z,104.80
2023-02-06T22:54:14.714Z,122.80
2023-02-06T22:56:43.575Z,107.40
2023-02-06T22:59:22.330Z,105.40
2023-02-06T23:01:54.094Z,105.60
2023-02-06T23:04:30.017Z,104.70
2023-02-06T23:06:58.116Z,105.60
2023-02-06T23:09:29.133Z,110.00
2023-02-06T23:12:01.164Z,121.90
2023-02-06T23:14:31.187Z,114.80
2023-02-06T23:17:00.754Z,108.70
2023-02-06T23:19:29.831Z,110.40
2023-02-06T23:21:57.723Z,109.90
2023-02-06T23:24:25.634Z,109.10
2023-02-06T23:26:54.453Z,117.90
2023-02-06T23:29:23.939Z,121.50
2023-02-06T23:31:51.964Z,137.90
2023-02-06T23:34:23.667Z,164.90
2023-02-06T23:36:52.073Z,191.30
2023-02-06T23:39:19.957Z,161.70
2023-02-06T23:41:47.815Z,125.60
2023-02-06T23:44:15.738Z,128.60
2023-02-06T23:46:43.628Z,150.30
2023-02-06T23:49:11.885Z,160.00
2023-02-06T23:51:39.761Z,170.40
2023-02-06T23:54:09.008Z,156.10
2023-02-06T23:56:37.353Z,153.70
2023-02-06T23:59:06.735Z,142.90
